createdAt,value
2022-09-28T00:02:15.303Z,8.40
2022-09-28T00:05:16.787Z,9.00
2022-09-28T00:08:07.636Z,8.53
2022-09-28T00:10:39.370Z,8.97
2022-09-28T00:16:50.270Z,7.70
2022-09-28T00:19:45.533Z,7.90
2022-09-28T00:25:42.048Z,8.30
2022-09-28T00:31:19.215Z,8.40
2022-09-28T00:34:46.119Z,7.87
2022-09-28T00:36:49.867Z,8.90
2022-09-28T00:39:18.959Z,8.37
2022-09-28T00:45:08.777Z,8.43
2022-09-28T00:48:01.801Z,8.30
2022-09-28T00:50:57.862Z,7.10
2022-09-28T00:53:39.911Z,7.17
2022-09-28T00:56:28.048Z,6.40
2022-09-28T00:59:47.525Z,4.77
2022-09-28T01:02:17.120Z,5.17
2022-09-28T01:04:55.186Z,4.30
2022-09-28T01:07:34.235Z,3.50
2022-09-28T01:13:05.916Z,3.80
2022-09-28T01:15:48.584Z,3.30
2022-09-28T01:18:36.946Z,3.13
2022-09-28T01:21:14.969Z,2.97
2022-09-28T01:24:42.887Z,2.30
2022-09-28T01:27:49.911Z,2.60
2022-09-28T01:30:48.666Z,2.13
2022-09-28T01:34:08.688Z,2.13
2022-09-28T01:37:24.324Z,2.10
2022-09-28T01:40:14.568Z,2.30
2022-09-28T01:46:26.739Z,1.50
2022-09-28T01:49:54.161Z,1.60
2022-09-28T01:53:13.320Z,1.60
2022-09-28T01:56:21.643Z,1.50
2022-09-28T01:59:21.796Z,1.50
2022-09-28T02:02:47.287Z,1.23
2022-09-28T02:09:16.716Z,1.70
2022-09-28T02:12:41.183Z,1.70
2022-09-28T02:15:40.180Z,1.70
2022-09-28T02:24:51.609Z,1.80
2022-09-28T02:28:01.731Z,1.77
2022-09-28T02:31:05.638Z,1.80
2022-09-28T02:34:23.861Z,1.90
2022-09-28T02:37:09.750Z,1.70
2022-09-28T02:39:43.077Z,1.97
2022-09-28T02:42:59.037Z,2.10
2022-09-28T02:45:50.771Z,2.00
2022-09-28T02:49:17.353Z,1.60
2022-09-28T02:51:59.821Z,1.90
2022-09-28T02:55:39.546Z,1.70
2022-09-28T02:59:03.273Z,1.70
2022-09-28T03:01:51.324Z,1.90
2022-09-28T03:04:52.952Z,2.00
2022-09-28T03:08:19.590Z,2.00
2022-09-28T03:11:24.007Z,2.03
2022-09-28T03:13:55.890Z,2.13
2022-09-28T03:16:44.823Z,2.00
2022-09-28T03:19:21.887Z,2.00
2022-09-28T03:22:00.346Z,2.17
2022-09-28T03:24:42.125Z,2.30
2022-09-28T03:27:25.212Z,2.40
2022-09-28T03:30:08.384Z,3.10
2022-09-28T03:33:15.871Z,3.27
2022-09-28T03:35:47.696Z,3.40
2022-09-28T03:39:16.295Z,3.00
2022-09-28T03:42:01.060Z,3.50
2022-09-28T03:44:56.759Z,3.83
2022-09-28T03:48:11.474Z,5.20
2022-09-28T03:51:23.351Z,5.70
2022-09-28T03:54:04.806Z,9.63
2022-09-28T03:57:00.446Z,8.00
2022-09-28T03:59:45.879Z,7.57
2022-09-28T04:02:18.487Z,7.63
2022-09-28T04:04:45.140Z,6.00
2022-09-28T04:07:11.847Z,5.70
2022-09-28T04:10:06.584Z,5.20
2022-09-28T04:13:01.552Z,5.60
2022-09-28T04:18:34.845Z,4.57
2022-09-28T04:21:34.139Z,5.07
2022-09-28T04:24:20.826Z,4.67
2022-09-28T04:27:56.820Z,5.30
2022-09-28T04:30:33.228Z,5.10
2022-09-28T04:33:05.902Z,4.50
2022-09-28T04:35:48.005Z,4.43
2022-09-28T04:38:51.288Z,4.27
2022-09-28T04:41:55.261Z,4.23
2022-09-28T04:44:42.982Z,4.20
2022-09-28T04:47:31.431Z,4.27
2022-09-28T04:50:19.298Z,4.20
2022-09-28T04:53:17.499Z,4.53
2022-09-28T04:56:25.103Z,4.13
2022-09-28T04:59:04.078Z,5.10
2022-09-28T05:01:49.746Z,5.03
2022-09-28T05:04:36.731Z,4.80
2022-09-28T05:10:34.717Z,5.30
2022-09-28T05:13:09.146Z,5.10
2022-09-28T05:16:05.621Z,5.57
2022-09-28T05:18:54.323Z,5.40
2022-09-28T05:21:31.426Z,5.60
2022-09-28T05:24:21.038Z,7.23
2022-09-28T05:27:00.636Z,6.97
2022-09-28T05:29:33.121Z,7.53
2022-09-28T05:32:29.587Z,6.80
2022-09-28T05:35:42.065Z,7.67
2022-09-28T05:38:24.681Z,7.50
2022-09-28T05:41:02.092Z,6.90
2022-09-28T05:43:39.658Z,6.90
2022-09-28T05:46:38.665Z,7.30
2022-09-28T05:49:52.171Z,7.50
2022-09-28T05:52:35.531Z,7.30
2022-09-28T05:55:11.174Z,7.43
2022-09-28T06:04:45.011Z,8.07
2022-09-28T06:14:13.948Z,8.17
2022-09-28T06:16:55.273Z,8.87
2022-09-28T06:19:53.192Z,9.27
2022-09-28T06:22:25.886Z,8.00
2022-09-28T06:25:17.795Z,8.20
2022-09-28T06:28:25.989Z,6.70
2022-09-28T06:31:13.164Z,6.57
2022-09-28T06:34:56.428Z,5.60
2022-09-28T06:40:49.182Z,5.90
2022-09-28T06:44:13.721Z,5.57
2022-09-28T06:50:49.825Z,5.67
2022-09-28T06:56:52.070Z,5.33
2022-09-28T06:59:29.424Z,6.13
2022-09-28T07:03:06.610Z,5.43
2022-09-28T07:10:52.540Z,4.43
2022-09-28T07:14:19.525Z,4.00
2022-09-28T07:17:13.264Z,4.03
2022-09-28T07:20:18.110Z,4.00
2022-09-28T07:23:18.091Z,3.43
2022-09-28T07:34:15.158Z,2.80
2022-09-28T07:37:14.148Z,2.17
2022-09-28T07:40:14.672Z,2.77
2022-09-28T07:49:52.487Z,1.50
2022-09-28T08:00:16.372Z,1.47
2022-09-28T08:02:49.303Z,1.77
2022-09-28T08:06:13.583Z,2.27
2022-09-28T08:09:45.549Z,2.00
2022-09-28T08:12:45.323Z,1.80
2022-09-28T08:16:28.624Z,2.00
2022-09-28T08:26:07.237Z,1.97
2022-09-28T08:28:57.087Z,1.80
2022-09-28T08:35:04.431Z,1.80
2022-09-28T08:50:10.419Z,2.27
2022-09-28T08:54:06.986Z,3.07
2022-09-28T09:00:54.742Z,2.70
2022-09-28T09:03:46.617Z,2.77
2022-09-28T09:07:14.916Z,3.30
2022-09-28T09:11:18.390Z,2.70
2022-09-28T09:18:25.427Z,2.73
2022-09-28T09:21:29.882Z,2.60
2022-09-28T09:37:24.008Z,2.20
2022-09-28T09:44:48.851Z,2.03
2022-09-28T10:04:28.582Z,1.50
2022-09-28T10:12:06.095Z,1.60
2022-09-28T10:20:12.813Z,1.30
2022-09-28T10:23:38.351Z,1.30
2022-09-28T10:26:59.022Z,1.60
2022-09-28T10:42:23.272Z,1.90
2022-09-28T11:03:15.586Z,1.83
2022-09-28T11:10:07.428Z,2.20
2022-09-28T11:16:42.484Z,2.53
2022-09-28T11:22:43.152Z,2.93
2022-09-28T11:26:31.698Z,2.30
2022-09-28T11:33:59.326Z,2.00
2022-09-28T12:33:25.879Z,3.60
2022-09-28T12:49:21.638Z,2.93
2022-09-28T12:52:00.812Z,3.33
2022-09-28T12:56:03.141Z,3.37
2022-09-28T13:08:00.727Z,3.33
2022-09-28T13:27:38.856Z,2.20
2022-09-28T13:39:03.192Z,1.97
2022-09-28T13:41:59.621Z,2.10
2022-09-28T13:54:03.530Z,2.13
2022-09-28T14:00:40.737Z,3.20
2022-09-28T14:04:18.284Z,3.30
2022-09-28T14:14:58.278Z,4.33
2022-09-28T14:24:46.986Z,4.27
2022-09-28T14:32:38.045Z,3.47
2022-09-28T14:43:43.240Z,4.33
2022-09-28T14:47:17.945Z,4.07
2022-09-28T14:50:54.147Z,3.57
2022-09-28T14:53:30.251Z,3.67
2022-09-28T14:56:36.130Z,3.07
2022-09-28T15:03:25.854Z,3.40
2022-09-28T15:13:41.478Z,3.40
2022-09-28T15:16:51.696Z,3.50
2022-09-28T15:20:09.432Z,3.40
2022-09-28T15:23:04.804Z,3.40
2022-09-28T15:33:10.256Z,3.47
2022-09-28T15:36:22.365Z,3.73
2022-09-28T15:39:28.178Z,4.10
2022-09-28T15:50:30.129Z,3.40
2022-09-28T15:53:05.195Z,3.90
2022-09-28T15:55:55.231Z,4.20
2022-09-28T16:02:36.392Z,4.97
2022-09-28T16:07:30.559Z,4.40
2022-09-28T16:10:06.785Z,5.10
2022-09-28T16:23:09.715Z,5.23
2022-09-28T16:43:54.727Z,5.63
2022-09-28T16:50:46.692Z,5.23
2022-09-28T16:53:58.324Z,6.60
2022-09-28T16:56:35.916Z,5.53
2022-09-28T17:02:54.228Z,6.00
2022-09-28T17:09:07.944Z,9.40
2022-09-28T17:15:23.281Z,6.40
2022-09-28T17:18:06.247Z,7.27
2022-09-28T17:21:06.646Z,7.37
2022-09-28T17:24:04.586Z,6.90
2022-09-28T17:29:22.537Z,7.10
2022-09-28T18:00:16.339Z,6.70
2022-09-28T18:03:44.856Z,6.60
2022-09-28T18:11:26.182Z,6.90
2022-09-28T18:14:06.760Z,7.17
2022-09-28T18:24:56.444Z,7.13
2022-09-28T18:27:50.502Z,6.80
2022-09-28T18:30:58.329Z,6.90
2022-09-28T18:37:06.625Z,6.43
2022-09-28T18:40:24.242Z,6.07
2022-09-28T18:44:10.504Z,6.13
2022-09-28T18:46:50.116Z,6.13
2022-09-28T18:49:58.201Z,5.80
2022-09-28T18:53:05.428Z,5.43
2022-09-28T18:56:08.247Z,5.43
2022-09-28T18:59:01.407Z,5.87
2022-09-28T19:01:32.155Z,5.97
2022-09-28T19:04:00.666Z,5.80
2022-09-28T19:06:28.013Z,6.10
2022-09-28T19:09:04.980Z,6.57
2022-09-28T19:11:31.773Z,5.80
2022-09-28T19:13:58.744Z,5.53
2022-09-28T19:16:31.643Z,5.73
2022-09-28T19:18:59.105Z,5.60
2022-09-28T19:21:26.722Z,5.23
2022-09-28T19:23:55.473Z,5.50
2022-09-28T19:26:26.951Z,5.07
2022-09-28T19:28:54.402Z,5.83
2022-09-28T19:31:39.266Z,5.90
2022-09-28T19:34:06.761Z,6.00
2022-09-28T19:36:35.128Z,6.60
2022-09-28T19:39:07.109Z,5.87
2022-09-28T19:41:43.521Z,6.30
2022-09-28T19:44:24.728Z,6.17
2022-09-28T19:46:56.868Z,6.10
2022-09-28T19:49:25.812Z,6.70
2022-09-28T19:52:13.967Z,6.00
2022-09-28T19:54:56.641Z,6.90
2022-09-28T19:57:33.615Z,7.30
2022-09-28T20:00:03.289Z,6.93
2022-09-28T20:02:34.804Z,6.93
2022-09-28T20:05:04.322Z,7.27
2022-09-28T20:07:33.077Z,7.33
2022-09-28T20:09:59.934Z,7.50
2022-09-28T20:12:32.797Z,7.53
2022-09-28T20:14:59.619Z,6.90
2022-09-28T20:17:27.482Z,8.60
2022-09-28T20:19:54.229Z,8.30
2022-09-28T20:22:23.594Z,9.20
2022-09-28T20:24:53.641Z,8.93
2022-09-28T20:27:26.382Z,8.50
2022-09-28T20:29:54.360Z,8.57
2022-09-28T20:32:48.718Z,8.60
2022-09-28T20:35:32.785Z,8.10
2022-09-28T20:38:09.141Z,8.10
2022-09-28T20:41:01.899Z,8.20
2022-09-28T20:43:37.977Z,8.00
2022-09-28T20:46:16.870Z,8.10
2022-09-28T20:48:59.569Z,7.83
2022-09-28T20:51:33.927Z,8.17
2022-09-28T20:54:00.752Z,8.27
2022-09-28T20:56:37.704Z,8.70
2022-09-28T20:59:14.656Z,8.70
2022-09-28T21:01:49.777Z,9.33
2022-09-28T21:04:19.698Z,8.17
2022-09-28T21:06:46.931Z,8.80
2022-09-28T21:09:19.199Z,8.57
2022-09-28T21:11:48.662Z,8.13
2022-09-28T21:14:15.768Z,9.00
2022-09-28T21:16:51.857Z,8.73
2022-09-28T21:19:19.158Z,9.77
2022-09-28T21:21:49.443Z,8.87
2022-09-28T21:24:21.443Z,8.70
2022-09-28T21:26:53.078Z,9.10
2022-09-28T21:29:19.918Z,11.03
2022-09-28T21:31:49.971Z,9.37
2022-09-28T21:34:33.055Z,9.47
2022-09-28T21:37:19.274Z,10.23
2022-09-28T21:45:41.527Z,10.23
2022-09-28T21:48:14.844Z,9.40
2022-09-28T21:50:45.838Z,9.57
2022-09-28T21:53:42.880Z,10.37
2022-09-28T21:56:29.276Z,9.83
2022-09-28T22:02:39.560Z,11.47
2022-09-28T22:05:24.839Z,11.13
2022-09-28T22:07:54.450Z,11.50
2022-09-28T22:10:33.842Z,12.30
2022-09-28T22:13:16.898Z,12.37
2022-09-28T22:15:48.441Z,12.20
2022-09-28T22:18:37.953Z,11.47
2022-09-28T22:21:15.289Z,11.60
2022-09-28T22:23:51.410Z,12.20
2022-09-28T22:26:32.496Z,12.90
2022-09-28T22:29:14.926Z,15.60
2022-09-28T22:31:59.127Z,13.50
2022-09-28T22:34:44.338Z,13.80
2022-09-28T22:37:33.691Z,15.23
2022-09-28T22:40:23.205Z,13.70
2022-09-28T22:43:07.007Z,14.53
2022-09-28T22:45:42.088Z,15.37
2022-09-28T22:48:26.767Z,16.30
2022-09-28T22:51:09.364Z,16.57
2022-09-28T22:53:54.463Z,14.60
2022-09-28T22:56:25.070Z,16.27
2022-09-28T22:59:20.111Z,15.00
2022-09-28T23:01:52.580Z,15.30
2022-09-28T23:04:35.746Z,16.30
2022-09-28T23:07:13.000Z,16.03
2022-09-28T23:09:55.855Z,16.20
2022-09-28T23:12:31.417Z,18.03
2022-09-28T23:15:21.982Z,17.60
2022-09-28T23:18:05.682Z,16.40
2022-09-28T23:20:39.917Z,16.50
2022-09-28T23:23:21.900Z,16.60
2022-09-28T23:25:59.200Z,16.57
2022-09-28T23:29:02.209Z,19.97
2022-09-28T23:38:35.630Z,17.50
2022-09-28T23:41:11.850Z,20.87
2022-09-28T23:44:04.240Z,19.80
2022-09-28T23:46:56.244Z,20.67
2022-09-28T23:50:05.262Z,19.60
2022-09-28T23:52:48.510Z,20.77
2022-09-28T23:55:22.776Z,20.70
2022-09-28T23:58:09.269Z,21.90
